Hauptseite
METAR-TAF:

METAR-TAF

Flughäfen :

Flughafen Graz

Graz, Österreich

Breite: 47-00N, Länge: 015-26E, Höhe: 340 m

Beobachtung

Neuester Wetterbericht von vor 41 Minuten, um 01:20 UTC
Wind 3 kt aus unterschiedlichen Richtungen
Temperatur -2°C
Luftfeuchtigkeit 59%
Luftdruck 1033 hPa
Sichtweite 10 km oder mehr
Leicht bewölkt in der Höhe von 6000 ft

METAR: LOWG 050120Z AUTO VRB03KT 9999 FEW060 M02/M09 Q1033

Zeit: 03:01 (02:01 UTC)

Prognose

Neuester Wetterbericht von vor 2 Stunden und 46 Minuten, um 23:15 UTC
Gültige Prognose vom 05 um 00 UTC bis 05 um 24 UTC
Wind 9 kt aus Nord
Sichtweite 10 km oder mehr
Leicht bewölkt in der Höhe von 6000 ft
Zeitweise
vom 05 um 00 UTC bis 05 um 08 UTC
Wind 5 kt aus unterschiedlichen Richtungen

TAF: LOWG 042315Z 0500/0524 36009KT 9999 FEW060 TX03/0513Z TNM06/0506Z TEMPO 0500/0508 VRB05KT

Wetterbeobachtungen und Prognosen von mehr als 4000 Flughäfen (METAR und TAF Bericht).

Die verfügbaren Stationen werden durch gelbe und rote Markierungen auf der Karte dargestellt.

Führen Sie die Maus auf sie, um den Namen der Station zu sehen.

Darauf klicken, um die Beobachtung von Wetterbeobachtungen und Prognosen zu sehen.

Um die Karte zu ändern : klicken Sie auf den grünen Tasten mit einem schwarzen Kreuz Zum Vergrößern, auf den grünen Button mit einem Gedankenstrich zu verkleinern, oder auf die grünen Pfeile für benachbarte Karten.


METAR-TAF: